Skip Navigation Links Skip Navigation Links

Current Weather

Blue Ridge, Martinsville, Va.

For information only: do not use for flight planning or navigation.
Latest weather
Observation time Tuesday, June 25, 2019 2:20 PM EDT
Local time Tuesday, June 25, 2019 2:29 PM EDT
Flight conditions Visual Meteorological Conditions
Winds
Wind direction Northwest (310°)
Wind speed 7 mph
Visibility 10 mi.
Sky condition
Ceiling unlimited
Cloud layer scattered clouds 6,500 ft.
Cloud layer scattered clouds 7,500 ft.
Temperature 84°F
Dewpoint 66°F
Altimeter 30.02 in.Hg
Derived measurements
Relative humidity 55%
Heat index 87°F
Density altitude 2736 ft.
Remarks
Fully automated report.
Automated weather observing station with precipitation discriminator.
METAR KMTV 251820Z AUTO 31006KT 10SM SCT065 SCT075 29/19 A3002 RMK AO2

Settings

Location code

InnerDrive.Weather 4.0.6770.0 Release CLR 4.0.30319.42000
Copyright ©2018 Inner Drive Technology. All rights reserved. Portions Copyright ©1986-2018 David Braverman.

Find weather

Site navigation


Skip Navigation Links

Place info

Page info

PayPal - The safer, easier way to pay online!

Return home.

Copyright ©2019 Inner Drive Technology. Purveyors of fine, hand-crafted computer software. Page printed 2019-06-25T18:29:21 UTC.